Cliffwood Beach, New Jersey
Current Conditions -  °F | °C
As of 7:35 AM on Friday 21 Nov 2014 (Local Time) from KLDJ Reporting Station
Clear Clear  
Wind Chill: 23°   Ceiling: Unl
Heat Index: 31°   Visibility: 10mi
Dew Point: 14°   Wind: 9mph
Humidity: 50%   Direction: 300°WNW
Pressure: 30.26"   Gusts: NA
Location:  40.4398°N, 74.1836°W
Report Text: KLDJ 211235Z AUTO 30008KT 10SM CLR M01/M10 A3026 RMK AO2 T10061098
Loading
Personal Weather Stations






























Interactive Weather Map New forecast layout! Learn more

10-Day Weather Forecast

Advertisements
Track Severe Weather on mobile